createdAt,value
2023-02-21T00:01:39.735Z,100902.31
2023-02-21T00:04:24.806Z,100887.44
2023-02-21T00:07:10.004Z,100894.53
2023-02-21T00:09:57.627Z,100904.72
2023-02-21T00:12:43.217Z,100892.72
2023-02-21T00:15:29.350Z,100908.63
2023-02-21T00:18:14.466Z,100906.56
2023-02-21T00:20:59.596Z,100907.19
2023-02-21T00:23:44.814Z,100908.81
2023-02-21T00:26:29.917Z,100910.63
2023-02-21T00:29:14.957Z,100912.00
2023-02-21T00:32:00.091Z,100911.22
2023-02-21T00:34:45.211Z,100923.75
2023-02-21T00:37:30.369Z,100927.41
2023-02-21T00:40:15.538Z,100929.19
2023-02-21T00:43:00.788Z,100932.88
2023-02-21T00:45:45.977Z,100931.75
2023-02-21T00:48:31.047Z,100936.56
2023-02-21T00:51:16.398Z,100944.63
2023-02-21T00:54:01.817Z,100943.16
2023-02-21T00:56:47.177Z,100938.19
2023-02-21T00:59:32.191Z,100947.69
2023-02-21T01:02:17.353Z,100934.38
2023-02-21T01:05:02.183Z,100940.66
2023-02-21T01:07:47.402Z,100946.97
2023-02-21T01:10:32.455Z,100948.66
2023-02-21T01:13:17.619Z,100954.69
2023-02-21T01:16:02.671Z,100957.13
2023-02-21T01:18:47.762Z,100964.97
2023-02-21T01:21:34.442Z,100954.47
2023-02-21T01:24:19.464Z,100966.53
2023-02-21T01:27:04.676Z,100967.88
2023-02-21T01:29:49.598Z,100956.25
2023-02-21T01:32:34.865Z,100959.50
2023-02-21T01:35:19.915Z,100966.38
2023-02-21T01:38:04.909Z,100971.94
2023-02-21T01:40:50.110Z,100955.19
2023-02-21T01:43:41.522Z,100964.91
2023-02-21T01:46:29.598Z,100966.91
2023-02-21T01:49:15.609Z,100958.53
2023-02-21T01:52:01.287Z,100961.38
2023-02-21T01:54:50.429Z,100966.22
2023-02-21T01:57:36.007Z,100973.25
2023-02-21T02:00:24.806Z,100972.09
2023-02-21T02:03:21.625Z,100966.44
2023-02-21T02:06:09.393Z,100963.53
2023-02-21T02:08:54.990Z,100955.47
2023-02-21T02:11:58.545Z,100964.81
2023-02-21T02:14:40.420Z,100944.69
2023-02-21T02:17:32.121Z,100943.75
2023-02-21T02:20:23.131Z,100950.19
2023-02-21T02:23:26.615Z,100944.19
2023-02-21T02:26:17.425Z,100938.47
2023-02-21T02:29:02.786Z,100934.75
2023-02-21T02:32:27.034Z,100932.22
2023-02-21T02:35:04.959Z,100930.72
2023-02-21T02:37:32.650Z,100930.53
2023-02-21T02:40:21.696Z,100928.84
2023-02-21T02:43:03.886Z,100929.59
2023-02-21T02:45:34.478Z,100924.41
2023-02-21T02:48:13.389Z,100925.03
2023-02-21T02:50:40.106Z,100928.97
2023-02-21T02:53:06.584Z,100938.72
2023-02-21T02:55:48.596Z,100928.94
2023-02-21T02:58:16.047Z,100937.47
2023-02-21T03:00:54.691Z,100930.91
2023-02-21T03:03:50.097Z,100936.06
2023-02-21T03:06:25.705Z,100935.34
2023-02-21T03:09:19.260Z,100937.00
2023-02-21T03:12:09.728Z,100936.16
2023-02-21T03:14:50.768Z,100939.06
2023-02-21T03:17:19.175Z,100938.78
2023-02-21T03:19:46.886Z,100940.31
2023-02-21T03:22:15.277Z,100927.28
2023-02-21T03:24:44.040Z,100929.88
2023-02-21T03:27:11.758Z,100936.59
2023-02-21T03:29:40.953Z,100939.50
2023-02-21T03:32:18.893Z,100943.28
2023-02-21T03:34:45.405Z,100941.50
2023-02-21T03:37:21.418Z,100944.31
2023-02-21T03:39:48.004Z,100937.97
2023-02-21T03:42:14.454Z,100936.22
2023-02-21T03:44:40.918Z,100944.50
2023-02-21T03:47:07.387Z,100946.72
2023-02-21T03:49:33.840Z,100952.84
2023-02-21T03:52:00.276Z,100953.91
2023-02-21T03:54:27.230Z,100954.53
2023-02-21T03:56:53.720Z,100949.22
2023-02-21T03:59:20.245Z,100960.88
2023-02-21T04:01:46.992Z,100958.84
2023-02-21T04:04:13.486Z,100962.75
2023-02-21T04:06:39.971Z,100962.13
2023-02-21T04:09:06.427Z,100962.28
2023-02-21T04:11:33.006Z,100957.06
2023-02-21T04:13:59.443Z,100964.44
2023-02-21T04:16:26.000Z,100957.66
2023-02-21T04:18:53.231Z,100961.03
2023-02-21T04:21:19.745Z,100956.94
2023-02-21T04:23:46.214Z,100957.22
2023-02-21T04:26:13.165Z,100956.47
2023-02-21T04:28:39.722Z,100944.84
2023-02-21T04:31:06.523Z,100951.28
2023-02-21T04:33:33.104Z,100949.13
2023-02-21T04:35:59.597Z,100934.69
2023-02-21T04:38:26.084Z,100934.06
2023-02-21T04:40:52.629Z,100942.19
2023-02-21T04:43:21.112Z,100934.47
2023-02-21T04:45:47.651Z,100934.28
2023-02-21T04:48:14.093Z,100942.38
2023-02-21T04:50:40.539Z,100933.38
2023-02-21T04:53:07.063Z,100929.22
2023-02-21T04:55:33.536Z,100930.59
2023-02-21T04:57:59.955Z,100932.00
2023-02-21T05:00:26.503Z,100951.03
2023-02-21T05:02:53.039Z,100950.44
2023-02-21T05:05:19.546Z,100955.81
2023-02-21T05:07:46.045Z,100954.59
2023-02-21T05:10:12.920Z,100955.59
2023-02-21T05:12:39.947Z,100955.28
2023-02-21T05:15:07.428Z,100966.50
2023-02-21T05:17:33.951Z,100955.84
2023-02-21T05:20:00.616Z,100967.16
2023-02-21T05:22:27.204Z,100966.72
2023-02-21T05:24:53.642Z,100973.63
2023-02-21T05:27:21.614Z,100984.38
2023-02-21T05:29:49.640Z,100986.66
2023-02-21T05:32:17.621Z,100987.63
2023-02-21T05:34:46.861Z,100987.72
2023-02-21T05:37:14.793Z,100991.97
2023-02-21T05:39:41.258Z,100998.50
2023-02-21T05:42:10.668Z,101001.63
2023-02-21T05:44:37.145Z,101002.78
2023-02-21T05:47:03.839Z,101012.19
2023-02-21T05:49:30.328Z,101013.50
2023-02-21T05:51:56.830Z,101006.72
2023-02-21T05:54:23.359Z,101005.03
2023-02-21T05:56:51.712Z,101013.59
2023-02-21T05:59:20.445Z,101013.84
2023-02-21T06:01:48.288Z,101010.09
2023-02-21T06:04:14.862Z,101018.66
2023-02-21T06:06:41.703Z,101009.47
2023-02-21T06:09:08.689Z,101022.00
2023-02-21T06:11:40.403Z,101026.53
2023-02-21T06:14:12.683Z,101030.91
2023-02-21T06:16:39.248Z,101028.75
2023-02-21T06:19:07.262Z,101043.47
2023-02-21T06:21:33.978Z,101038.69
2023-02-21T06:24:00.460Z,101035.91
2023-02-21T06:26:27.327Z,101035.13
2023-02-21T06:28:53.921Z,101042.88
2023-02-21T06:31:20.926Z,101049.75
2023-02-21T06:33:48.625Z,101042.56
2023-02-21T06:36:18.071Z,101058.66
2023-02-21T06:38:51.274Z,101062.56
2023-02-21T06:41:20.252Z,101066.13
2023-02-21T06:43:46.758Z,101061.25
2023-02-21T06:46:21.185Z,101061.75
2023-02-21T06:48:47.846Z,101081.13
2023-02-21T06:51:15.181Z,101087.31
2023-02-21T06:53:42.415Z,101086.28
2023-02-21T06:56:09.124Z,101084.44
2023-02-21T06:58:35.743Z,101092.88
2023-02-21T07:01:02.497Z,101095.66
2023-02-21T07:03:29.054Z,101082.38
2023-02-21T07:05:55.738Z,101088.88
2023-02-21T07:08:22.296Z,101092.97
2023-02-21T07:10:48.762Z,101088.53
2023-02-21T07:13:15.233Z,101089.91
2023-02-21T07:15:41.713Z,101087.81
2023-02-21T07:18:08.267Z,101085.28
2023-02-21T07:20:35.359Z,101082.94
2023-02-21T07:23:01.811Z,101093.56
2023-02-21T07:25:28.425Z,101093.78
2023-02-21T07:27:54.932Z,101094.94
2023-02-21T07:30:21.617Z,101095.66
2023-02-21T07:32:48.145Z,101094.78
2023-02-21T07:35:14.693Z,101103.22
2023-02-21T07:37:41.240Z,101103.56
2023-02-21T07:40:08.029Z,101105.50
2023-02-21T07:42:34.536Z,101109.81
2023-02-21T07:45:01.302Z,101102.31
2023-02-21T07:47:27.818Z,101101.91
2023-02-21T07:49:55.095Z,101105.47
2023-02-21T07:52:22.484Z,101107.28
2023-02-21T07:54:49.007Z,101116.47
2023-02-21T07:57:16.997Z,101116.75
2023-02-21T07:59:43.698Z,101111.16
2023-02-21T08:02:11.991Z,101120.47
2023-02-21T08:04:38.492Z,101119.91
2023-02-21T08:07:05.722Z,101127.56
2023-02-21T08:09:33.337Z,101121.16
2023-02-21T08:11:59.834Z,101125.78
2023-02-21T08:14:26.404Z,101143.31
2023-02-21T08:16:52.898Z,101145.91
2023-02-21T08:19:19.489Z,101147.78
2023-02-21T08:21:47.243Z,101147.50
2023-02-21T08:24:14.259Z,101146.09
2023-02-21T08:26:41.938Z,101145.16
2023-02-21T08:29:09.157Z,101142.06
2023-02-21T08:31:37.120Z,101155.97
2023-02-21T08:34:04.579Z,101152.69
2023-02-21T08:36:32.732Z,101162.13
2023-02-21T08:38:59.215Z,101161.47
2023-02-21T08:41:25.833Z,101163.56
2023-02-21T08:43:52.460Z,101175.03
2023-02-21T08:46:18.921Z,101175.69
2023-02-21T08:48:45.409Z,101178.88
2023-02-21T08:51:11.854Z,101174.16
2023-02-21T08:53:38.311Z,101183.06
2023-02-21T08:56:04.955Z,101179.47
2023-02-21T08:58:31.400Z,101184.81
2023-02-21T09:00:57.927Z,101180.97
2023-02-21T09:03:24.433Z,101172.28
2023-02-21T09:05:50.862Z,101186.97
2023-02-21T09:08:20.788Z,101195.91
2023-02-21T09:10:47.966Z,101190.19
2023-02-21T09:13:14.525Z,101187.47
2023-02-21T09:15:41.007Z,101195.00
2023-02-21T09:18:07.594Z,101195.75
2023-02-21T09:20:34.096Z,101189.03
2023-02-21T09:23:00.544Z,101199.88
2023-02-21T09:25:27.523Z,101203.91
2023-02-21T09:27:54.750Z,101197.94
2023-02-21T09:30:24.542Z,101203.72
2023-02-21T09:32:51.410Z,101197.09
2023-02-21T09:35:18.422Z,101200.75
2023-02-21T09:37:46.451Z,101208.03
2023-02-21T09:40:34.252Z,101199.09
2023-02-21T09:43:02.052Z,101199.47
2023-02-21T09:45:33.351Z,101200.97
2023-02-21T09:48:04.606Z,101196.94
2023-02-21T09:50:35.294Z,101202.75
2023-02-21T09:53:01.827Z,101205.50
2023-02-21T09:55:30.792Z,101211.22
2023-02-21T09:57:57.786Z,101209.06
2023-02-21T10:00:36.079Z,101207.97
2023-02-21T10:03:36.212Z,101211.41
2023-02-21T10:06:15.837Z,101214.75
2023-02-21T10:09:01.115Z,101219.16
2023-02-21T10:11:53.985Z,101220.44
2023-02-21T10:14:33.231Z,101224.72
2023-02-21T10:17:07.106Z,101216.47
2023-02-21T10:19:39.237Z,101223.00
2023-02-21T10:22:20.881Z,101228.34
2023-02-21T10:24:49.255Z,101227.47
2023-02-21T10:27:22.910Z,101231.91
2023-02-21T10:29:58.566Z,101236.72
2023-02-21T10:32:25.553Z,101240.69
2023-02-21T10:34:54.861Z,101235.81
2023-02-21T10:37:44.669Z,101231.91
2023-02-21T10:40:41.511Z,101226.34
2023-02-21T10:43:16.754Z,101238.63
2023-02-21T10:45:47.902Z,101238.53
2023-02-21T10:48:15.363Z,101232.06
2023-02-21T10:51:03.627Z,101240.47
2023-02-21T10:53:32.898Z,101245.41
2023-02-21T10:56:23.503Z,101246.88
2023-02-21T10:59:05.539Z,101238.47
2023-02-21T11:01:36.287Z,101244.25
2023-02-21T11:04:22.765Z,101249.16
2023-02-21T11:07:05.217Z,101233.06
2023-02-21T11:09:45.754Z,101249.84
2023-02-21T11:12:26.471Z,101249.56
2023-02-21T11:14:58.981Z,101250.19
2023-02-21T11:17:29.521Z,101248.66
2023-02-21T11:20:16.906Z,101253.19
2023-02-21T11:22:45.539Z,101245.69
2023-02-21T11:25:12.022Z,101246.13
2023-02-21T11:27:39.092Z,101242.91
2023-02-21T11:30:16.894Z,101251.03
2023-02-21T11:32:49.626Z,101253.66
2023-02-21T11:35:19.149Z,101261.06
2023-02-21T11:38:07.519Z,101245.47
2023-02-21T11:40:45.559Z,101253.31
2023-02-21T11:43:17.325Z,101247.25
2023-02-21T11:45:49.099Z,101247.69
2023-02-21T11:48:18.455Z,101248.44
2023-02-21T11:50:50.226Z,101248.13
2023-02-21T11:53:43.340Z,101244.22
2023-02-21T11:56:15.824Z,101250.75
2023-02-21T11:58:53.328Z,101241.03
2023-02-21T12:01:27.731Z,101240.84
2023-02-21T12:04:26.649Z,101246.88
2023-02-21T12:07:39.936Z,101245.63
2023-02-21T12:10:20.161Z,101254.41
2023-02-21T12:13:02.763Z,101253.59
2023-02-21T12:15:41.097Z,101246.31
2023-02-21T12:18:24.949Z,101262.84
2023-02-21T12:21:04.881Z,101252.41
2023-02-21T12:24:04.680Z,101251.78
2023-02-21T12:26:46.609Z,101253.56
2023-02-21T12:29:42.895Z,101240.41
2023-02-21T12:32:24.206Z,101253.03
2023-02-21T12:35:27.625Z,101254.69
2023-02-21T12:38:42.623Z,101258.75
2023-02-21T12:41:35.995Z,101255.66
2023-02-21T12:44:02.426Z,101254.56
2023-02-21T12:46:34.865Z,101253.91
2023-02-21T12:49:06.572Z,101253.69
2023-02-21T12:51:39.138Z,101252.31
2023-02-21T12:54:11.134Z,101249.31
2023-02-21T12:56:53.582Z,101245.13
2023-02-21T12:59:29.926Z,101253.50
2023-02-21T13:02:22.564Z,101249.03
2023-02-21T13:05:00.547Z,101245.06
2023-02-21T13:07:40.347Z,101249.28
2023-02-21T13:10:09.790Z,101250.34
2023-02-21T13:12:43.109Z,101258.72
2023-02-21T13:15:18.251Z,101250.00
2023-02-21T13:18:03.824Z,101248.38
2023-02-21T13:20:42.412Z,101250.38
2023-02-21T13:24:05.290Z,101244.97
2023-02-21T13:26:51.012Z,101247.34
2023-02-21T13:29:25.588Z,101246.03
2023-02-21T13:32:01.080Z,101251.06
2023-02-21T13:34:30.709Z,101239.88
2023-02-21T13:37:03.233Z,101249.59
2023-02-21T13:39:36.457Z,101251.97
2023-02-21T13:42:11.647Z,101249.47
2023-02-21T13:44:49.683Z,101251.47
2023-02-21T13:47:23.209Z,101250.91
2023-02-21T13:49:53.610Z,101241.59
2023-02-21T13:52:20.047Z,101243.34
2023-02-21T13:55:11.635Z,101244.44
2023-02-21T13:57:49.811Z,101235.34
2023-02-21T14:00:25.292Z,101235.63
2023-02-21T14:02:56.369Z,101235.81
2023-02-21T14:05:23.633Z,101234.97
2023-02-21T14:08:02.758Z,101237.13
2023-02-21T14:10:49.851Z,101229.72
2023-02-21T14:13:36.299Z,101225.00
2023-02-21T14:16:08.705Z,101245.00
2023-02-21T14:18:50.366Z,101237.13
2023-02-21T14:21:24.617Z,101237.28
2023-02-21T14:24:02.425Z,101227.81
2023-02-21T14:26:52.183Z,101243.22
2023-02-21T14:29:36.397Z,101231.72
2023-02-21T14:32:03.668Z,101228.09
2023-02-21T14:34:47.788Z,101248.47
2023-02-21T14:37:23.300Z,101241.44
2023-02-21T14:40:02.254Z,101243.28
2023-02-21T14:42:53.065Z,101241.03
2023-02-21T14:45:49.627Z,101245.69
2023-02-21T14:48:56.304Z,101251.63
2023-02-21T14:51:52.389Z,101248.19
2023-02-21T14:54:37.310Z,101248.19
2023-02-21T14:57:34.890Z,101249.91
2023-02-21T15:00:26.352Z,101240.59
2023-02-21T15:03:12.628Z,101252.94
2023-02-21T15:05:42.199Z,101248.19
2023-02-21T15:08:16.144Z,101249.88
2023-02-21T15:10:45.085Z,101239.81
2023-02-21T15:13:33.654Z,101252.31
2023-02-21T15:16:02.793Z,101244.88
2023-02-21T15:18:34.832Z,101251.72
2023-02-21T15:21:04.389Z,101255.72
2023-02-21T15:23:31.649Z,101250.56
2023-02-21T15:26:00.855Z,101250.81
2023-02-21T15:28:30.282Z,101267.75
2023-02-21T15:31:08.863Z,101267.28
2023-02-21T15:33:37.477Z,101263.72
2023-02-21T15:36:14.185Z,101259.13
2023-02-21T15:38:55.058Z,101267.97
2023-02-21T15:41:46.769Z,101274.88
2023-02-21T15:44:18.434Z,101275.78
2023-02-21T15:46:52.099Z,101267.44
2023-02-21T15:49:22.781Z,101273.88
2023-02-21T15:51:51.384Z,101272.50
2023-02-21T15:54:17.929Z,101263.09
2023-02-21T15:56:45.360Z,101269.47
2023-02-21T15:59:25.618Z,101261.31
2023-02-21T16:02:14.160Z,101274.16
2023-02-21T16:04:46.532Z,101266.25
2023-02-21T16:07:44.336Z,101257.44
2023-02-21T16:10:14.325Z,101264.59
2023-02-21T16:12:45.255Z,101265.59
2023-02-21T16:15:25.336Z,101263.31
2023-02-21T16:17:54.316Z,101266.88
2023-02-21T16:20:25.822Z,101270.09
2023-02-21T16:23:22.452Z,101276.16
2023-02-21T16:26:09.232Z,101272.09
2023-02-21T16:28:40.608Z,101280.72
2023-02-21T16:31:16.548Z,101278.88
2023-02-21T16:33:43.395Z,101274.53
2023-02-21T16:36:19.000Z,101274.25
2023-02-21T16:38:45.466Z,101273.63
2023-02-21T16:41:15.679Z,101290.19
2023-02-21T16:43:42.517Z,101287.78
2023-02-21T16:46:09.022Z,101295.44
2023-02-21T16:48:35.576Z,101292.59
2023-02-21T16:51:05.187Z,101292.19
2023-02-21T16:53:31.838Z,101290.59
2023-02-21T16:56:00.125Z,101299.81
2023-02-21T16:58:32.359Z,101309.22
2023-02-21T17:01:01.963Z,101301.34
2023-02-21T17:03:28.684Z,101309.31
2023-02-21T17:05:57.168Z,101318.25
2023-02-21T17:08:24.379Z,101316.19
2023-02-21T17:10:50.912Z,101311.59
2023-02-21T17:13:17.412Z,101305.22
2023-02-21T17:15:47.842Z,101322.63
2023-02-21T17:18:15.623Z,101322.75
2023-02-21T17:20:42.376Z,101332.25
2023-02-21T17:23:08.850Z,101324.75
2023-02-21T17:25:36.526Z,101326.00
2023-02-21T17:28:03.739Z,101324.97
2023-02-21T17:30:31.506Z,101316.78
2023-02-21T17:32:58.106Z,101325.63
2023-02-21T17:35:24.719Z,101332.78
2023-02-21T17:37:51.627Z,101324.06
2023-02-21T17:40:19.860Z,101335.69
2023-02-21T17:42:46.644Z,101329.81
2023-02-21T17:45:15.273Z,101338.09
2023-02-21T17:47:41.913Z,101331.97
2023-02-21T17:50:08.820Z,101337.44
2023-02-21T17:52:36.450Z,101336.63
2023-02-21T17:55:07.734Z,101337.69
2023-02-21T17:57:37.378Z,101345.84
2023-02-21T18:00:12.441Z,101344.00
2023-02-21T18:02:39.079Z,101345.94
2023-02-21T18:05:06.766Z,101352.84
2023-02-21T18:07:33.958Z,101356.59
2023-02-21T18:10:01.222Z,101367.59
2023-02-21T18:12:27.738Z,101357.88
2023-02-21T18:14:54.295Z,101365.75
2023-02-21T18:17:21.058Z,101359.50
2023-02-21T18:19:47.561Z,101366.22
2023-02-21T18:22:14.289Z,101375.50
2023-02-21T18:24:41.005Z,101375.38
2023-02-21T18:27:07.685Z,101365.91
2023-02-21T18:29:34.123Z,101370.06
2023-02-21T18:32:00.651Z,101366.53
2023-02-21T18:34:28.820Z,101374.34
2023-02-21T18:36:55.651Z,101374.38
2023-02-21T18:39:23.639Z,101373.47
2023-02-21T18:41:50.155Z,101376.38
2023-02-21T18:44:17.041Z,101378.34
2023-02-21T18:46:55.304Z,101380.03
2023-02-21T18:49:23.370Z,101384.81
2023-02-21T18:51:56.000Z,101375.72
2023-02-21T18:54:22.483Z,101377.06
2023-02-21T18:56:52.107Z,101376.59
2023-02-21T18:59:20.658Z,101379.94
2023-02-21T19:01:52.352Z,101382.53
2023-02-21T19:04:19.070Z,101383.91
2023-02-21T19:06:46.017Z,101377.59
2023-02-21T19:09:12.968Z,101385.81
2023-02-21T19:11:39.628Z,101389.19
2023-02-21T19:14:06.211Z,101387.50
2023-02-21T19:16:32.956Z,101390.03
2023-02-21T19:19:00.139Z,101386.19
2023-02-21T19:21:26.982Z,101377.47
2023-02-21T19:23:53.452Z,101388.09
2023-02-21T19:26:19.948Z,101377.31
2023-02-21T19:28:46.686Z,101390.94
2023-02-21T19:31:16.412Z,101387.56
2023-02-21T19:33:43.685Z,101392.63
2023-02-21T19:36:10.672Z,101387.91
2023-02-21T19:38:37.257Z,101391.47
2023-02-21T19:41:07.672Z,101401.47
2023-02-21T19:43:34.722Z,101399.78
2023-02-21T19:46:07.305Z,101392.50
2023-02-21T19:48:33.828Z,101402.13
2023-02-21T19:51:00.277Z,101403.41
2023-02-21T19:53:26.754Z,101397.41
2023-02-21T19:55:53.308Z,101406.75
2023-02-21T19:58:19.884Z,101415.03
2023-02-21T20:00:46.595Z,101406.72
2023-02-21T20:03:13.117Z,101406.50
2023-02-21T20:05:39.664Z,101405.41
2023-02-21T20:08:06.441Z,101399.31
2023-02-21T20:10:32.982Z,101403.00
2023-02-21T20:12:59.511Z,101405.88
2023-02-21T20:15:25.978Z,101407.03
2023-02-21T20:17:54.227Z,101413.47
2023-02-21T20:20:21.031Z,101409.13
2023-02-21T20:22:47.493Z,101402.97
2023-02-21T20:25:13.958Z,101404.28
2023-02-21T20:27:41.871Z,101416.00
2023-02-21T20:30:09.312Z,101410.16
2023-02-21T20:32:35.903Z,101412.13
2023-02-21T20:35:02.595Z,101408.22
2023-02-21T20:37:31.390Z,101412.66
2023-02-21T20:39:58.630Z,101408.59
2023-02-21T20:42:25.413Z,101405.16
2023-02-21T20:44:52.301Z,101411.66
2023-02-21T20:47:20.038Z,101412.16
2023-02-21T20:49:47.698Z,101410.91
2023-02-21T20:52:14.986Z,101409.63
2023-02-21T20:54:42.103Z,101414.75
2023-02-21T20:57:09.353Z,101411.22
2023-02-21T20:59:39.025Z,101409.41
2023-02-21T21:02:06.237Z,101409.16
2023-02-21T21:04:37.941Z,101420.72
2023-02-21T21:07:12.640Z,101411.88
2023-02-21T21:09:39.994Z,101413.84
2023-02-21T21:12:09.831Z,101418.16
2023-02-21T21:14:41.769Z,101421.97
2023-02-21T21:17:12.780Z,101421.81
2023-02-21T21:19:40.818Z,101422.03
2023-02-21T21:22:10.578Z,101428.31
2023-02-21T21:24:38.535Z,101416.06
2023-02-21T21:27:10.076Z,101425.44
2023-02-21T21:29:38.230Z,101420.91
2023-02-21T21:32:05.591Z,101416.81
2023-02-21T21:34:33.260Z,101417.47
2023-02-21T21:37:01.797Z,101418.97
2023-02-21T21:39:28.472Z,101422.28
2023-02-21T21:42:09.545Z,101416.44
2023-02-21T21:44:39.766Z,101413.13
2023-02-21T21:47:09.205Z,101413.13
2023-02-21T21:49:36.824Z,101413.75
2023-02-21T21:52:04.692Z,101407.78
2023-02-21T21:54:35.973Z,101412.41
2023-02-21T21:57:04.247Z,101414.78
2023-02-21T21:59:32.508Z,101409.16
2023-02-21T22:01:59.467Z,101409.00
2023-02-21T22:04:29.447Z,101419.97
2023-02-21T22:06:56.643Z,101404.44
2023-02-21T22:09:25.543Z,101413.34
2023-02-21T22:11:53.954Z,101401.34
2023-02-21T22:14:22.765Z,101403.19
2023-02-21T22:16:50.908Z,101401.56
2023-02-21T22:19:18.152Z,101393.53
2023-02-21T22:21:44.659Z,101397.69
2023-02-21T22:24:15.253Z,101401.00
2023-02-21T22:26:44.747Z,101394.06
2023-02-21T22:29:12.460Z,101392.03
2023-02-21T22:31:38.957Z,101393.53
2023-02-21T22:34:05.464Z,101397.03
2023-02-21T22:36:32.801Z,101396.50
2023-02-21T22:39:08.253Z,101403.13
2023-02-21T22:41:35.108Z,101388.94
2023-02-21T22:44:01.670Z,101390.56
2023-02-21T22:46:28.906Z,101392.16
2023-02-21T22:48:56.809Z,101394.81
2023-02-21T22:51:28.061Z,101383.09
2023-02-21T22:53:55.593Z,101391.94
2023-02-21T22:56:24.331Z,101388.06
2023-02-21T22:58:57.253Z,101388.44
2023-02-21T23:01:26.538Z,101383.16
2023-02-21T23:03:54.103Z,101383.31
2023-02-21T23:06:21.470Z,101384.97
2023-02-21T23:08:49.345Z,101381.53
2023-02-21T23:11:25.866Z,101386.94
2023-02-21T23:13:52.378Z,101384.28
2023-02-21T23:16:23.799Z,101394.72
2023-02-21T23:18:50.648Z,101389.81
2023-02-21T23:21:23.040Z,101382.47
2023-02-21T23:23:53.008Z,101376.81
2023-02-21T23:26:20.273Z,101377.50
2023-02-21T23:28:49.319Z,101379.22
2023-02-21T23:31:18.051Z,101380.09
2023-02-21T23:33:48.755Z,101376.97
2023-02-21T23:36:22.597Z,101375.50
2023-02-21T23:38:50.612Z,101377.88
2023-02-21T23:41:18.178Z,101378.34
2023-02-21T23:43:48.124Z,101376.97
2023-02-21T23:46:23.209Z,101374.06
2023-02-21T23:48:53.621Z,101377.63
2023-02-21T23:51:23.018Z,101383.88
2023-02-21T23:53:49.478Z,101378.28
2023-02-21T23:56:15.961Z,101374.94
2023-02-21T23:58:45.256Z,101376.31
